Time;durP1;ratioP1;P1;durP2;ratioP2;P2;SDS_P1;SDS_P2;PMS_P1;PMS_P2;Temp;Humidity;BMP_temperature;BMP_pressure;BME280_temperature;BME280_humidity;BME280_pressure;Samples;Min_cycle;Max_cycle;Signal;HPM_P1;HPM_P2
2021/01/25 00:01:21;;;;;;;;;;;;;;;4.91;63.75;99175.41;5010186;28;11459;-74
2021/01/25 00:03:47;;;;;;;;;;;;;;;4.92;63.74;99166.84;5026723;28;7318;-74
2021/01/25 00:06:13;;;;;;;;;;;;;;;4.93;63.73;99173.72;5025935;28;7134;-74
2021/01/25 00:08:38;;;;;;;;;;;;;;;4.93;64.28;99167.72;5024008;28;7602;-74
2021/01/25 00:11:04;;;;;;;;;;;;;;;4.91;63.92;99166.81;5011630;28;7478;-74
2021/01/25 00:13:30;;;;;;;;;;;;;;;4.91;63.82;99166.81;5011620;28;7030;-74
2021/01/25 00:15:55;;;;;;;;;;;;;;;4.90;63.84;99168.53;5025918;28;6941;-74
2021/01/25 00:18:21;;;;;;;;;;;;;;;4.91;63.98;99170.25;5011283;28;12307;-74
2021/01/25 00:20:46;;;;;;;;;;;;;;;4.91;63.81;99169.41;5014178;28;7113;-74
2021/01/25 00:23:12;;;;;;;;;;;;;;;4.89;63.58;99166.81;4992667;28;8467;-74
2021/01/25 00:25:37;;;;;;;;;;;;;;;4.92;63.96;99166.00;5025265;28;7255;-74
2021/01/25 00:28:03;;;;;;;;;;;;;;;4.91;63.76;99167.69;5010295;28;7254;-74
2021/01/25 00:30:29;;;;;;;;;;;;;;;4.93;63.62;99165.16;5010476;28;6983;-74
2021/01/25 00:32:54;;;;;;;;;;;;;;;4.88;63.88;99171.06;5039092;28;6796;-74
2021/01/25 00:35:20;;;;;;;;;;;;;;;4.89;63.53;99169.38;5028327;28;6858;-74
2021/01/25 00:37:45;;;;;;;;;;;;;;;4.92;63.49;99163.41;5010411;28;7086;-74
2021/01/25 00:40:11;;;;;;;;;;;;;;;4.92;63.45;99172.00;5024967;28;8800;-75
2021/01/25 00:42:37;;;;;;;;;;;;;;;4.90;63.63;99163.38;5026892;28;7317;-74
2021/01/25 00:45:04;;;;;;;;;;;;;;;4.89;63.90;99159.94;5009094;28;7049;-74
2021/01/25 00:47:29;;;;;;;;;;;;;;;4.90;64.32;99158.25;5008743;28;6823;-74
2021/01/25 00:49:55;;;;;;;;;;;;;;;4.90;64.14;99163.38;5009898;28;7332;-74
2021/01/25 00:52:21;;;;;;;;;;;;;;;4.91;63.79;99148.81;5010916;28;7398;-74
2021/01/25 00:54:46;;;;;;;;;;;;;;;4.90;64.21;99158.25;5008752;28;6795;-74
2021/01/25 00:57:12;;;;;;;;;;;;;;;4.92;63.66;99160.84;5008257;28;7250;-74
2021/01/25 00:59:37;;;;;;;;;;;;;;;4.92;63.50;99156.56;5009296;28;6787;-74
2021/01/25 01:02:03;;;;;;;;;;;;;;;4.89;63.94;99154.81;5010928;28;7114;-74
2021/01/25 01:04:28;;;;;;;;;;;;;;;4.89;63.78;99148.78;5011593;28;7079;-74
2021/01/25 01:06:54;;;;;;;;;;;;;;;4.90;64.04;99147.97;5010936;28;6953;-74
2021/01/25 01:09:20;;;;;;;;;;;;;;;4.89;63.76;99148.78;5009870;28;7086;-74
2021/01/25 01:11:45;;;;;;;;;;;;;;;4.90;63.98;99150.53;5008385;28;6795;-74
2021/01/25 01:14:11;;;;;;;;;;;;;;;4.90;64.04;99153.09;5009134;28;6860;-74
2021/01/25 01:16:36;;;;;;;;;;;;;;;4.87;64.16;99153.91;5011325;28;8182;-75
2021/01/25 01:19:02;;;;;;;;;;;;;;;4.88;63.88;99159.91;5011424;28;7311;-74
2021/01/25 01:21:27;;;;;;;;;;;;;;;4.89;63.60;99153.94;5011915;28;7184;-74
2021/01/25 01:23:53;;;;;;;;;;;;;;;4.88;63.71;99154.78;5009810;28;7181;-74
2021/01/25 01:26:19;;;;;;;;;;;;;;;4.88;64.29;99145.34;5011042;28;7042;-74
2021/01/25 01:28:44;;;;;;;;;;;;;;;4.88;63.74;99165.06;5008535;28;6813;-74
2021/01/25 01:31:10;;;;;;;;;;;;;;;4.86;63.88;99159.03;5008333;28;6856;-74
2021/01/25 01:33:35;;;;;;;;;;;;;;;4.85;64.25;99157.28;5004989;28;8629;-74
2021/01/25 01:36:01;;;;;;;;;;;;;;;4.87;63.92;99153.03;5009653;28;6859;-74
2021/01/25 01:38:26;;;;;;;;;;;;;;;4.87;63.83;99158.19;5009778;28;7201;-74
2021/01/25 01:40:55;;;;;;;;;;;;;;;4.87;63.77;99159.06;5024196;28;7613;-74
2021/01/25 01:43:21;;;;;;;;;;;;;;;4.88;63.68;99153.06;5009386;28;7591;-74
2021/01/25 01:45:46;;;;;;;;;;;;;;;4.86;63.90;99157.31;5009265;28;7279;-74
2021/01/25 01:48:12;;;;;;;;;;;;;;;4.87;64.60;99155.63;5008072;28;6795;-74
2021/01/25 01:50:37;;;;;;;;;;;;;;;4.84;64.25;99147.84;5008703;28;6788;-74
2021/01/25 01:53:03;;;;;;;;;;;;;;;4.87;63.64;99158.19;5008674;28;7222;-74
2021/01/25 01:55:28;;;;;;;;;;;;;;;4.86;64.03;99153.88;5008829;28;6795;-74
2021/01/25 01:57:54;;;;;;;;;;;;;;;4.86;63.79;99151.31;5018968;28;7343;-74
2021/01/25 02:00:21;;;;;;;;;;;;;;;4.85;63.95;99149.56;4994287;28;6780;-74
2021/01/25 02:02:47;;;;;;;;;;;;;;;4.84;63.53;99147.84;5022807;28;7260;-74
2021/01/25 02:05:12;;;;;;;;;;;;;;;4.84;64.17;99150.41;5008827;28;6787;-74
2021/01/25 02:07:39;;;;;;;;;;;;;;;4.83;64.02;99152.13;5010075;28;6981;-74
2021/01/25 02:10:05;;;;;;;;;;;;;;;4.84;63.66;99147.84;5023856;28;6962;-74
2021/01/25 02:12:31;;;;;;;;;;;;;;;4.81;64.19;99151.22;5008215;28;13314;-74
2021/01/25 02:14:58;;;;;;;;;;;;;;;4.81;63.89;99153.78;5017442;28;7217;-74
2021/01/25 02:17:23;;;;;;;;;;;;;;;4.81;63.70;99153.78;5011318;28;7229;-74
2021/01/25 02:20:01;;;;;;;;;;;;;;;4.81;64.11;99158.06;5012427;28;7810;-74
2021/01/25 02:22:35;;;;;;;;;;;;;;;4.80;63.61;99154.59;5009086;28;7339;-74
2021/01/25 02:25:14;;;;;;;;;;;;;;;4.78;64.27;99152.84;5008575;28;6807;-74
2021/01/25 02:27:42;;;;;;;;;;;;;;;4.77;64.37;99154.53;5005849;28;11356;-74
2021/01/25 02:30:08;;;;;;;;;;;;;;;4.79;64.27;99154.56;5007973;28;7054;-74
2021/01/25 02:32:34;;;;;;;;;;;;;;;4.79;63.72;99146.84;5038081;28;7106;-75
2021/01/25 02:35:01;;;;;;;;;;;;;;;4.77;64.26;99157.13;5007717;28;6798;-74
2021/01/25 02:37:27;;;;;;;;;;;;;;;4.76;64.51;99151.94;5007765;28;7221;-74
2021/01/25 02:39:52;;;;;;;;;;;;;;;4.77;64.32;99153.66;5005189;28;6821;-74
2021/01/25 02:42:19;;;;;;;;;;;;;;;4.76;64.28;99157.94;5006844;28;7463;-74
2021/01/25 02:44:44;;;;;;;;;;;;;;;4.77;64.13;99164.81;5021345;28;6795;-74
2021/01/25 02:47:10;;;;;;;;;;;;;;;4.75;64.41;99158.78;5007985;28;7244;-74
2021/01/25 02:49:35;;;;;;;;;;;;;;;4.69;64.03;99161.25;5010402;28;7291;-74
2021/01/25 02:52:04;;;;;;;;;;;;;;;4.72;64.08;99168.16;5032129;28;7049;-74
2021/01/25 02:54:30;;;;;;;;;;;;;;;4.71;64.08;99162.13;5022678;28;6867;-74
2021/01/25 02:56:56;;;;;;;;;;;;;;;4.72;64.01;99163.00;5007807;28;7249;-74
2021/01/25 02:59:21;;;;;;;;;;;;;;;4.73;64.68;99167.31;4990913;28;7463;-74
2021/01/25 03:01:47;;;;;;;;;;;;;;;4.72;63.81;99163.00;5008554;28;6847;-74
2021/01/25 03:04:13;;;;;;;;;;;;;;;4.72;63.97;99160.44;5005128;28;6803;-74
2021/01/25 03:06:40;;;;;;;;;;;;;;;4.73;63.89;99165.59;5021618;28;7356;-74
2021/01/25 03:09:06;;;;;;;;;;;;;;;4.71;64.17;99166.41;5026908;28;7071;-74
2021/01/25 03:11:31;;;;;;;;;;;;;;;4.71;63.62;99166.41;5009212;28;6840;-74
2021/01/25 03:14:09;;;;;;;;;;;;;;;4.71;64.03;99164.72;5033337;28;6795;-74
2021/01/25 03:16:35;;;;;;;;;;;;;;;4.70;64.13;99160.41;5019670;28;11401;-74
2021/01/25 03:19:00;;;;;;;;;;;;;;;4.71;64.51;99174.13;5010837;28;6855;-74
2021/01/25 03:21:26;;;;;;;;;;;;;;;4.69;63.94;99168.97;5008217;28;7389;-74
2021/01/25 03:23:52;;;;;;;;;;;;;;;4.71;63.87;99174.13;5007202;28;7265;-74
2021/01/25 03:26:18;;;;;;;;;;;;;;;4.71;63.75;99172.41;4990781;28;6790;-74
2021/01/25 03:28:43;;;;;;;;;;;;;;;4.72;63.90;99173.28;5011004;28;6930;-74
2021/01/25 03:31:09;;;;;;;;;;;;;;;4.71;63.62;99174.13;5013378;28;7074;-74
2021/01/25 03:33:34;;;;;;;;;;;;;;;4.71;63.67;99172.41;5038651;28;7248;-74
2021/01/25 03:36:00;;;;;;;;;;;;;;;4.72;64.46;99174.16;5011666;28;6965;-74
2021/01/25 03:38:26;;;;;;;;;;;;;;;4.68;64.67;99176.63;5012895;28;6990;-74
2021/01/25 03:40:51;;;;;;;;;;;;;;;4.69;64.36;99179.25;5014414;28;7678;-74
2021/01/25 03:43:17;;;;;;;;;;;;;;;4.71;63.64;99174.13;5011421;28;6783;-74
2021/01/25 03:45:42;;;;;;;;;;;;;;;4.71;64.34;99179.28;5014601;28;7185;-74
2021/01/25 03:48:08;;;;;;;;;;;;;;;4.70;64.31;99178.41;5011885;28;6913;-74
2021/01/25 03:50:34;;;;;;;;;;;;;;;4.70;64.13;99180.97;5020556;28;8585;-74
2021/01/25 03:53:00;;;;;;;;;;;;;;;4.68;64.00;99177.50;5010815;28;7308;-74
2021/01/25 03:55:26;;;;;;;;;;;;;;;4.69;64.56;99176.66;5010984;28;7149;-74
2021/01/25 03:57:51;;;;;;;;;;;;;;;4.71;64.24;99176.69;5011633;28;6867;-75
2021/01/25 04:00:18;;;;;;;;;;;;;;;4.72;63.59;99183.56;5014069;28;7177;-74
2021/01/25 04:02:43;;;;;;;;;;;;;;;4.71;63.54;99182.72;5010622;28;7164;-74
2021/01/25 04:05:09;;;;;;;;;;;;;;;4.73;63.79;99190.44;5012232;28;6863;-74
2021/01/25 04:07:35;;;;;;;;;;;;;;;4.70;63.65;99191.25;5027488;28;7228;-74
2021/01/25 04:10:00;;;;;;;;;;;;;;;4.69;64.25;99194.66;5013191;28;7346;-74
2021/01/25 04:12:26;;;;;;;;;;;;;;;4.69;63.77;99188.66;5009057;28;7916;-74
2021/01/25 04:14:51;;;;;;;;;;;;;;;4.73;64.10;99190.44;5009465;28;8475;-74
2021/01/25 04:17:17;;;;;;;;;;;;;;;4.71;63.61;99193.00;5012064;28;6912;-74
2021/01/25 04:19:43;;;;;;;;;;;;;;;4.70;64.06;99196.41;5028330;28;6987;-74
2021/01/25 04:22:08;;;;;;;;;;;;;;;4.71;64.41;99203.28;5011579;28;7230;-74
2021/01/25 04:24:34;;;;;;;;;;;;;;;4.73;63.83;99211.03;5010740;28;8025;-74
2021/01/25 04:26:59;;;;;;;;;;;;;;;4.71;63.91;99203.28;5012680;28;7082;-74
2021/01/25 04:29:25;;;;;;;;;;;;;;;4.72;63.57;99211.84;5012235;28;6979;-74
2021/01/25 04:31:51;;;;;;;;;;;;;;;4.71;64.21;99213.56;5010735;28;7269;-74
2021/01/25 04:34:16;;;;;;;;;;;;;;;4.72;64.05;99214.44;5008819;28;6796;-74
2021/01/25 04:36:42;;;;;;;;;;;;;;;4.71;64.04;99210.13;5009400;28;8140;-74
2021/01/25 04:39:07;;;;;;;;;;;;;;;4.71;64.05;99220.41;5009051;28;7893;-74
2021/01/25 04:41:33;;;;;;;;;;;;;;;4.69;64.16;99210.09;5009390;28;7216;-74
2021/01/25 04:43:59;;;;;;;;;;;;;;;4.72;63.63;99214.44;5012126;28;6859;-74
2021/01/25 04:46:24;;;;;;;;;;;;;;;4.70;63.81;99214.41;5023934;28;7988;-74
2021/01/25 04:48:50;;;;;;;;;;;;;;;4.72;64.01;99222.16;5013753;28;7151;-74
2021/01/25 04:51:15;;;;;;;;;;;;;;;4.69;64.56;99220.38;5009351;28;6867;-74
2021/01/25 04:53:41;;;;;;;;;;;;;;;4.71;64.27;99215.28;5010319;28;7533;-74
2021/01/25 04:56:10;;;;;;;;;;;;;;;4.71;64.03;99213.56;4997375;28;7388;-74
2021/01/25 04:58:35;;;;;;;;;;;;;;;4.72;64.13;99214.44;5009861;28;6814;-74
2021/01/25 05:01:01;;;;;;;;;;;;;;;4.70;64.41;99213.53;5026976;28;6863;-77
2021/01/25 05:03:28;;;;;;;;;;;;;;;4.69;63.95;99216.94;5040800;28;7141;-75
2021/01/25 05:05:53;;;;;;;;;;;;;;;4.71;64.17;99217.84;5013522;28;7221;-75
2021/01/25 05:08:19;;;;;;;;;;;;;;;4.72;64.08;99223.00;5014246;28;6784;-75
2021/01/25 05:10:44;;;;;;;;;;;;;;;4.70;64.42;99216.97;5011609;28;6806;-76
2021/01/25 05:13:24;;;;;;;;;;;;;;;4.70;64.22;99226.38;5009632;28;7105;-76
2021/01/25 05:15:53;;;;;;;;;;;;;;;4.69;64.71;99222.94;5020484;28;11075;-76
2021/01/25 05:18:22;;;;;;;;;;;;;;;4.68;64.15;99226.34;5021385;28;7383;-77
2021/01/25 05:20:53;;;;;;;;;;;;;;;4.70;63.94;99234.97;5023654;28;7172;-74
2021/01/25 05:23:18;;;;;;;;;;;;;;;4.70;64.35;99232.41;5006572;28;7249;-75
2021/01/25 05:25:44;;;;;;;;;;;;;;;4.70;64.64;99236.69;5021765;28;6855;-73
2021/01/25 05:28:19;;;;;;;;;;;;;;;4.70;64.65;99232.41;5009645;28;7217;-75
2021/01/25 05:30:45;;;;;;;;;;;;;;;4.70;63.81;99234.97;5035968;28;12846;-74
2021/01/25 05:33:11;;;;;;;;;;;;;;;4.68;64.35;99233.22;5006919;28;7229;-71
2021/01/25 05:35:36;;;;;;;;;;;;;;;4.69;64.22;99235.81;5005463;28;7638;-73
2021/01/25 05:38:04;;;;;;;;;;;;;;;4.69;64.87;99228.09;5007661;28;6799;-73
2021/01/25 05:40:31;;;;;;;;;;;;;;;4.69;63.97;99234.94;5007936;28;7484;-75
2021/01/25 05:42:56;;;;;;;;;;;;;;;4.70;64.24;99228.97;5008168;28;6811;-75
2021/01/25 05:45:23;;;;;;;;;;;;;;;4.71;64.73;99235.84;5010096;28;6896;-74
2021/01/25 05:47:52;;;;;;;;;;;;;;;4.70;64.68;99234.09;5012938;28;6868;-74
2021/01/25 05:50:29;;;;;;;;;;;;;;;4.69;64.37;99235.81;5021092;28;7392;-74
2021/01/25 05:52:55;;;;;;;;;;;;;;;4.71;63.84;99235.84;5005761;28;6953;-74
2021/01/25 05:55:21;;;;;;;;;;;;;;;4.70;64.51;99241.81;5008982;28;7453;-74
2021/01/25 05:57:47;;;;;;;;;;;;;;;4.69;64.55;99250.38;5007892;28;6787;-74
2021/01/25 06:00:13;;;;;;;;;;;;;;;4.68;64.46;99249.50;5012020;28;7122;-73
2021/01/25 06:02:41;;;;;;;;;;;;;;;4.67;64.20;99254.63;5007244;28;6880;-73
2021/01/25 06:05:07;;;;;;;;;;;;;;;4.68;64.21;99253.78;5009218;28;7477;-74
2021/01/25 06:07:32;;;;;;;;;;;;;;;4.68;64.12;99254.66;5018703;28;6858;-74
2021/01/25 06:09:58;;;;;;;;;;;;;;;4.69;64.68;99264.09;5036423;28;7129;-74
2021/01/25 06:12:29;;;;;;;;;;;;;;;4.68;65.04;99267.50;5007333;28;6968;-74
2021/01/25 06:15:03;;;;;;;;;;;;;;;4.68;64.61;99270.06;5024463;28;7379;-74
2021/01/25 06:17:31;;;;;;;;;;;;;;;4.70;64.51;99267.53;5035277;28;7522;-73
2021/01/25 06:19:57;;;;;;;;;;;;;;;4.69;64.21;99270.94;5017231;28;7469;-74
2021/01/25 06:22:22;;;;;;;;;;;;;;;4.68;64.54;99275.22;5021583;28;7198;-74
2021/01/25 06:24:48;;;;;;;;;;;;;;;4.70;64.87;99275.25;5008744;28;6799;-73
2021/01/25 06:27:14;;;;;;;;;;;;;;;4.70;64.36;99282.97;5003731;28;6789;-74
2021/01/25 06:29:40;;;;;;;;;;;;;;;4.69;64.38;99284.66;5023979;28;7067;-74
2021/01/25 06:32:08;;;;;;;;;;;;;;;4.71;64.13;99294.97;5004155;28;7090;-74
2021/01/25 06:34:36;;;;;;;;;;;;;;;4.70;64.52;99294.13;5003547;28;7064;-76
2021/01/25 06:37:01;;;;;;;;;;;;;;;4.70;64.62;99294.13;5032638;28;7285;-74
2021/01/25 06:39:28;;;;;;;;;;;;;;;4.70;64.21;99306.09;5006174;28;6847;-74
2021/01/25 06:42:01;;;;;;;;;;;;;;;4.71;64.74;99311.28;5021087;28;7478;-74
2021/01/25 06:44:27;;;;;;;;;;;;;;;4.70;64.57;99308.69;5019166;28;6819;-74
2021/01/25 06:46:55;;;;;;;;;;;;;;;4.69;64.85;99312.09;5033380;28;7009;-74
2021/01/25 06:49:20;;;;;;;;;;;;;;;4.70;64.53;99316.38;5003720;28;7094;-73
2021/01/25 06:51:46;;;;;;;;;;;;;;;4.69;64.63;99323.25;5006423;28;7316;-75
2021/01/25 06:54:43;;;;;;;;;;;;;;;4.70;64.97;99327.53;5023929;28;7234;-74
2021/01/25 07:00:39;;;;;;;;;;;;;;;4.95;64.28;99335.81;5002503;28;11306;-74
2021/01/25 07:03:06;;;;;;;;;;;;;;;5.01;63.98;99339.44;5028681;28;7789;-75
2021/01/25 07:05:33;;;;;;;;;;;;;;;5.04;63.96;99342.06;5011464;28;7076;-75
2021/01/25 07:08:20;;;;;;;;;;;;;;;5.08;63.30;99348.16;5010553;28;7214;-74
2021/01/25 07:11:01;;;;;;;;;;;;;;;5.10;63.94;99355.06;5041729;28;11143;-75
2021/01/25 07:13:28;;;;;;;;;;;;;;;5.13;63.86;99356.81;5025371;28;7298;-74
2021/01/25 07:15:53;;;;;;;;;;;;;;;5.14;63.49;99364.59;5012280;28;6807;-74
2021/01/25 07:18:20;;;;;;;;;;;;;;;5.15;63.54;99361.16;5009654;28;7975;-75
2021/01/25 07:20:49;;;;;;;;;;;;;;;5.15;63.72;99371.47;5038491;28;8677;-73
2021/01/25 07:23:16;;;;;;;;;;;;;;;5.18;63.63;99370.66;5009444;28;7806;-75
2021/01/25 07:25:52;;;;;;;;;;;;;;;5.19;63.65;99383.56;5040110;28;6880;-76
2021/01/25 07:28:17;;;;;;;;;;;;;;;5.21;63.37;99380.19;5009363;28;11321;-74
2021/01/25 07:30:43;;;;;;;;;;;;;;;5.23;63.58;99386.22;5010179;28;7094;-74
2021/01/25 07:33:08;;;;;;;;;;;;;;;5.22;63.85;99395.66;5010778;28;7185;-75
2021/01/25 07:35:34;;;;;;;;;;;;;;;5.24;63.14;99396.56;5009297;28;7265;-69
2021/01/25 07:38:03;;;;;;;;;;;;;;;5.26;63.24;99402.59;5034653;28;7293;-72
2021/01/25 07:40:28;;;;;;;;;;;;;;;5.28;63.93;99394.91;5005469;28;7170;-71
2021/01/25 07:42:54;;;;;;;;;;;;;;;5.30;63.48;99396.69;5013077;28;6788;-72
2021/01/25 07:45:23;;;;;;;;;;;;;;;5.33;63.40;99398.47;5014477;28;6792;-68
2021/01/25 07:47:49;;;;;;;;;;;;;;;5.33;63.63;99409.63;5016242;28;7014;-71
2021/01/25 07:50:15;;;;;;;;;;;;;;;5.36;62.84;99416.53;5023344;28;7374;-70
2021/01/25 07:52:40;;;;;;;;;;;;;;;5.36;63.09;99416.53;5018217;28;8397;-74
2021/01/25 07:55:14;;;;;;;;;;;;;;;5.36;63.02;99412.25;5010810;28;7129;-74
2021/01/25 07:57:40;;;;;;;;;;;;;;;5.37;63.63;99421.72;5009937;28;6815;-74
2021/01/25 08:00:22;;;;;;;;;;;;;;;5.42;62.80;99427.88;5038234;28;7157;-75
2021/01/25 08:03:09;;;;;;;;;;;;;;;5.45;62.86;99429.63;5011968;28;11083;-74
2021/01/25 08:05:35;;;;;;;;;;;;;;;5.45;63.20;99432.22;5002982;28;7274;-74
2021/01/25 08:08:08;;;;;;;;;;;;;;;5.47;62.85;99436.56;5012427;28;6986;-74
2021/01/25 08:10:34;;;;;;;;;;;;;;;5.50;62.74;99435.75;5024713;28;7305;-75
2021/01/25 08:13:01;;;;;;;;;;;;;;;5.52;63.23;99436.66;5019514;28;7264;-75
2021/01/25 08:15:29;;;;;;;;;;;;;;;5.53;62.92;99443.53;5010677;28;6799;-75
2021/01/25 08:17:57;;;;;;;;;;;;;;;5.54;62.72;99445.28;5010711;28;6958;-74
2021/01/25 08:20:24;;;;;;;;;;;;;;;5.55;63.02;99447.00;5010003;28;6816;-75
2021/01/25 08:23:01;;;;;;;;;;;;;;;5.57;63.26;99455.63;5007748;28;7274;-74
2021/01/25 08:25:27;;;;;;;;;;;;;;;5.62;62.98;99448.91;5008611;28;7012;-76
2021/01/25 08:28:11;;;;;;;;;;;;;;;5.65;62.77;99464.44;5008368;28;7225;-75
2021/01/25 08:30:43;;;;;;;;;;;;;;;5.68;62.68;99461.91;5005900;28;6985;-75
2021/01/25 08:33:10;;;;;;;;;;;;;;;5.71;62.39;99461.97;5011906;28;7005;-75
2021/01/25 08:35:53;;;;;;;;;;;;;;;5.74;62.22;99464.63;5007252;28;6803;-75
2021/01/25 08:38:32;;;;;;;;;;;;;;;5.78;62.17;99468.13;5012567;28;11397;-74
2021/01/25 08:40:59;;;;;;;;;;;;;;;5.79;62.37;99485.31;5026059;28;6836;-74
2021/01/25 08:43:30;;;;;;;;;;;;;;;5.80;62.36;99485.34;5011140;28;6796;-76
2021/01/25 08:46:12;;;;;;;;;;;;;;;5.85;62.30;99497.47;5011312;28;7022;-75
2021/01/25 08:48:38;;;;;;;;;;;;;;;5.86;62.52;99494.94;5024615;28;7402;-74
2021/01/25 08:51:14;;;;;;;;;;;;;;;5.90;62.55;99496.78;5009673;28;7272;-74
2021/01/25 08:53:57;;;;;;;;;;;;;;;5.99;62.08;99501.25;5010668;28;6883;-75
2021/01/25 08:56:23;;;;;;;;;;;;;;;6.03;62.39;99508.22;5025537;28;11133;-74
2021/01/25 08:58:48;;;;;;;;;;;;;;;6.07;61.76;99520.34;5010749;28;7323;-74
2021/01/25 09:01:16;;;;;;;;;;;;;;;6.06;61.90;99522.03;5012474;28;7740;-75
2021/01/25 09:03:42;;;;;;;;;;;;;;;6.07;61.67;99526.34;5004974;28;7206;-76
2021/01/25 09:06:09;;;;;;;;;;;;;;;6.09;61.86;99528.97;5006633;28;6931;-76
2021/01/25 09:08:35;;;;;;;;;;;;;;;6.15;61.68;99530.78;5003955;28;7668;-76
2021/01/25 09:11:00;;;;;;;;;;;;;;;6.21;61.55;99536.97;5010716;28;6780;-75
2021/01/25 09:13:26;;;;;;;;;;;;;;;6.25;61.56;99535.31;5010714;28;7829;-74
2021/01/25 09:15:51;;;;;;;;;;;;;;;6.29;61.79;99540.56;5007053;28;6799;-75
2021/01/25 09:18:17;;;;;;;;;;;;;;;6.31;60.94;99544.03;5008927;28;7368;-75
2021/01/25 09:20:42;;;;;;;;;;;;;;;6.34;61.17;99549.25;5008376;28;6814;-76
2021/01/25 09:23:08;;;;;;;;;;;;;;;6.42;60.90;99554.59;5008814;28;7310;-75
2021/01/25 09:25:33;;;;;;;;;;;;;;;6.54;60.90;99559.13;5004362;28;7055;-75
2021/01/25 09:27:59;;;;;;;;;;;;;;;6.59;60.54;99563.53;5011608;28;7143;-75
2021/01/25 09:30:27;;;;;;;;;;;;;;;6.58;60.88;99566.94;4994275;28;8570;-74
2021/01/25 09:32:53;;;;;;;;;;;;;;;6.63;60.79;99573.09;5008840;28;7294;-75
2021/01/25 09:35:19;;;;;;;;;;;;;;;6.65;60.66;99576.56;5012935;28;7876;-74
2021/01/25 09:37:45;;;;;;;;;;;;;;;6.63;60.73;99578.25;5009093;28;7308;-74
2021/01/25 09:40:11;;;;;;;;;;;;;;;6.66;60.51;99582.59;5024966;28;6799;-74
2021/01/25 09:42:36;;;;;;;;;;;;;;;6.66;60.95;99580.00;5008825;28;6995;-74
2021/01/25 09:45:02;;;;;;;;;;;;;;;6.68;60.74;99591.22;5010836;28;7627;-74
2021/01/25 09:47:28;;;;;;;;;;;;;;;6.72;60.59;99596.47;5007977;28;7209;-76
2021/01/25 09:49:53;;;;;;;;;;;;;;;6.74;60.86;99604.25;5023589;28;7352;-75
2021/01/25 09:52:19;;;;;;;;;;;;;;;6.78;60.86;99608.63;5010325;28;7285;-74
2021/01/25 09:54:45;;;;;;;;;;;;;;;6.81;60.27;99619.03;5008581;28;6941;-75
2021/01/25 09:57:10;;;;;;;;;;;;;;;6.84;60.75;99619.09;5024634;28;7067;-74
2021/01/25 09:59:36;;;;;;;;;;;;;;;6.88;60.57;99628.63;5008510;28;6813;-74
2021/01/25 10:02:01;;;;;;;;;;;;;;;6.90;60.57;99634.69;5010714;28;8819;-75
2021/01/25 10:04:27;;;;;;;;;;;;;;;6.94;60.31;99633.91;5022143;28;7265;-75
2021/01/25 10:06:52;;;;;;;;;;;;;;;6.94;60.17;99645.94;5023198;28;7090;-74
2021/01/25 10:09:18;;;;;;;;;;;;;;;6.92;60.36;99645.91;5007287;28;6916;-74
2021/01/25 10:11:44;;;;;;;;;;;;;;;6.98;60.35;99645.16;5025237;28;6779;-76
2021/01/25 10:14:09;;;;;;;;;;;;;;;7.03;60.21;99647.84;5008124;28;7042;-74
2021/01/25 10:16:35;;;;;;;;;;;;;;;7.07;60.00;99645.34;5005437;28;7216;-74
2021/01/25 10:19:00;;;;;;;;;;;;;;;7.07;60.02;99649.63;5007464;28;7257;-75
2021/01/25 10:21:26;;;;;;;;;;;;;;;7.17;59.65;99657.56;5006264;28;7297;-76
2021/01/25 10:23:51;;;;;;;;;;;;;;;7.18;59.87;99659.31;5026082;28;6999;-76
2021/01/25 10:26:18;;;;;;;;;;;;;;;7.22;59.82;99665.44;5007617;28;7182;-74
2021/01/25 10:28:44;;;;;;;;;;;;;;;7.23;59.83;99669.75;4985832;28;7013;-75
2021/01/25 10:31:09;;;;;;;;;;;;;;;7.24;59.48;99674.06;5006681;28;8563;-74
2021/01/25 10:33:35;;;;;;;;;;;;;;;7.29;nan;99681.06;5009054;28;6980;-74
2021/01/25 10:36:00;;;;;;;;;;;;;;;7.34;59.45;99683.72;5009471;28;7265;-74
2021/01/25 10:38:26;;;;;;;;;;;;;;;7.37;59.71;99685.50;5004929;28;9247;-74
2021/01/25 10:40:52;;;;;;;;;;;;;;;7.40;59.47;99693.28;5023376;28;7081;-74
2021/01/25 10:43:18;;;;;;;;;;;;;;;7.42;59.41;99702.84;4997037;28;12222;-74
2021/01/25 10:45:44;;;;;;;;;;;;;;;7.46;59.58;99699.47;5007016;28;6792;-73
2021/01/25 10:48:09;;;;;;;;;;;;;;;7.47;59.58;99710.66;5009099;28;7018;-74
2021/01/25 10:50:35;;;;;;;;;;;;;;;7.50;59.53;99706.44;5006851;28;7334;-74
2021/01/25 10:53:00;;;;;;;;;;;;;;;7.52;59.45;99712.50;5005244;28;7121;-74
2021/01/25 10:55:26;;;;;;;;;;;;;;;7.60;59.25;99725.53;5031056;28;7420;-74
2021/01/25 10:57:51;;;;;;;;;;;;;;;7.53;59.17;99729.72;5007901;28;6779;-74
2021/01/25 11:00:19;;;;;;;;;;;;;;;7.57;59.00;99726.34;5029682;28;7757;-73
2021/01/25 11:02:45;;;;;;;;;;;;;;;7.65;59.21;99728.22;5017996;28;7055;-74
2021/01/25 11:05:12;;;;;;;;;;;;;;;7.76;58.75;99719.81;5000926;28;7492;-73
2021/01/25 11:07:37;;;;;;;;;;;;;;;7.88;58.51;99729.50;5031070;28;6990;-74
2021/01/25 11:10:06;;;;;;;;;;;;;;;8.03;58.02;99724.63;5015062;28;6990;-72
2021/01/25 11:12:32;;;;;;;;;;;;;;;8.11;57.84;99733.34;5004580;28;7476;-72
2021/01/25 11:14:57;;;;;;;;;;;;;;;8.14;58.13;99738.56;5015751;28;6835;-72
2021/01/25 11:17:23;;;;;;;;;;;;;;;8.15;58.18;99739.44;5003755;28;11017;-72
2021/01/25 11:19:49;;;;;;;;;;;;;;;8.16;58.14;99744.63;5007935;28;6796;-72
2021/01/25 11:22:14;;;;;;;;;;;;;;;8.15;57.93;99742.91;5007799;28;7110;-72
2021/01/25 11:24:40;;;;;;;;;;;;;;;8.18;58.14;99753.28;5006228;28;7070;-72
2021/01/25 11:27:06;;;;;;;;;;;;;;;8.20;58.06;99759.34;5006681;28;8112;-72
2021/01/25 11:29:32;;;;;;;;;;;;;;;8.23;57.57;99766.31;5023610;28;7427;-71
2021/01/25 11:31:58;;;;;;;;;;;;;;;8.26;57.75;99766.38;5009065;28;6927;-72
2021/01/25 11:34:24;;;;;;;;;;;;;;;8.29;58.00;99769.00;5007310;28;12224;-71
2021/01/25 11:36:50;;;;;;;;;;;;;;;8.31;58.01;99769.91;5005794;28;7466;-71
2021/01/25 11:39:16;;;;;;;;;;;;;;;8.37;57.94;99767.44;5005471;28;7291;-71
2021/01/25 11:41:41;;;;;;;;;;;;;;;8.40;57.81;99776.97;5008993;28;7210;-71
2021/01/25 11:44:07;;;;;;;;;;;;;;;8.45;57.62;99780.50;5008423;28;7222;-71
2021/01/25 11:46:32;;;;;;;;;;;;;;;8.51;57.66;99790.97;5008270;28;6809;-72
2021/01/25 11:48:58;;;;;;;;;;;;;;;8.57;57.45;99788.47;5026676;28;6925;-71
2021/01/25 11:51:23;;;;;;;;;;;;;;;8.61;57.40;99798.03;5010072;28;7055;-71
2021/01/25 11:53:49;;;;;;;;;;;;;;;8.68;56.98;99797.28;5007407;28;7323;-71
2021/01/25 11:56:14;;;;;;;;;;;;;;;8.75;56.82;99801.69;5006340;28;7190;-71
2021/01/25 11:58:40;;;;;;;;;;;;;;;8.76;56.94;99800.84;5010252;28;6784;-71
2021/01/25 12:01:06;;;;;;;;;;;;;;;8.80;56.82;99804.34;5013702;28;6876;-71
2021/01/25 12:03:31;;;;;;;;;;;;;;;8.87;56.69;99811.38;5011745;28;8338;-71
2021/01/25 12:05:57;;;;;;;;;;;;;;;8.96;56.29;99810.63;5039387;28;6964;-71
2021/01/25 12:08:23;;;;;;;;;;;;;;;9.00;56.65;99807.22;5011557;28;7217;-71
2021/01/25 12:10:49;;;;;;;;;;;;;;;8.98;56.38;99804.59;5008857;28;8665;-71
2021/01/25 12:13:14;;;;;;;;;;;;;;;8.97;56.80;99802.88;5015961;28;7104;-72
2021/01/25 12:15:40;;;;;;;;;;;;;;;8.99;56.64;99806.34;5018137;28;6847;-71
2021/01/25 12:18:05;;;;;;;;;;;;;;;9.07;56.67;99814.25;5004647;28;7405;-71
2021/01/25 12:20:31;;;;;;;;;;;;;;;9.17;56.34;99813.50;5009306;28;7313;-71
2021/01/25 12:22:57;;;;;;;;;;;;;;;9.26;55.97;99815.38;5008257;28;6968;-72
2021/01/25 12:25:22;;;;;;;;;;;;;;;9.37;55.99;99824.16;5009037;28;6867;-71
2021/01/25 12:27:49;;;;;;;;;;;;;;;9.43;55.41;99830.31;5012178;28;7674;-72
2021/01/25 12:30:15;;;;;;;;;;;;;;;9.45;55.72;99835.50;5007494;28;7350;-71
2021/01/25 12:32:42;;;;;;;;;;;;;;;9.48;55.41;99832.06;5011000;28;7432;-72
2021/01/25 12:35:09;;;;;;;;;;;;;;;9.42;55.49;99843.25;5038344;28;6791;-72
2021/01/25 12:37:35;;;;;;;;;;;;;;;9.38;55.55;99842.31;5007123;28;7099;-73
2021/01/25 12:40:00;;;;;;;;;;;;;;;9.34;55.91;99850.88;5012134;28;6779;-75
2021/01/25 12:42:26;;;;;;;;;;;;;;;9.34;56.23;99848.31;5025188;28;6783;-73
2021/01/25 12:44:51;;;;;;;;;;;;;;;9.53;55.59;99852.00;5007034;28;7118;-74
2021/01/25 12:47:17;;;;;;;;;;;;;;;9.66;55.31;99847.88;5009386;28;7245;-74
2021/01/25 12:49:42;;;;;;;;;;;;;;;9.80;55.15;99853.19;5003419;28;7555;-74
2021/01/25 12:52:08;;;;;;;;;;;;;;;9.85;54.76;99849.81;5024822;28;8426;-74
2021/01/25 12:54:33;;;;;;;;;;;;;;;9.84;54.97;99855.00;5024037;28;7022;-74
2021/01/25 12:56:59;;;;;;;;;;;;;;;9.75;54.98;99863.53;5011558;28;6878;-76
2021/01/25 12:59:25;;;;;;;;;;;;;;;9.56;55.57;99865.00;5009660;28;7329;-74
2021/01/25 13:01:50;;;;;;;;;;;;;;;9.49;55.84;99864.91;5007193;28;6850;-74
2021/01/25 13:04:16;;;;;;;;;;;;;;;9.44;55.96;99870.03;5004574;28;7117;-75
2021/01/25 13:06:41;;;;;;;;;;;;;;;9.39;56.08;99874.25;5005666;28;8475;-74
2021/01/25 13:09:07;;;;;;;;;;;;;;;9.29;56.33;99870.69;5008995;28;7357;-72